Time;durP1;ratioP1;P1;durP2;ratioP2;P2;SDS_P1;SDS_P2;PMS_P1;PMS_P2;Temp;Humidity;BMP_temperature;BMP_pressure;BME280_temperature;BME280_humidity;BME280_pressure;Samples;Min_cycle;Max_cycle;Signal;HPM_P1;HPM_P2
2022/09/15 00:00:52;;;;;;;6.40;2.70;;;16.80;99.90;;;;;;5053898;28;20082;-61
2022/09/15 00:03:20;;;;;;;6.20;2.70;;;16.70;99.90;;;;;;5053698;28;20064;-61
2022/09/15 00:05:46;;;;;;;4.47;2.80;;;16.80;99.90;;;;;;5053736;28;20037;-61
2022/09/15 00:08:12;;;;;;;7.35;2.78;;;16.70;99.90;;;;;;5053788;28;20067;-60
2022/09/15 00:10:48;;;;;;;7.53;2.97;;;16.40;99.90;;;;;;5054125;28;20500;-61
2022/09/15 00:13:15;;;;;;;6.68;2.50;;;16.90;99.90;;;;;;5053124;28;20029;-61
2022/09/15 00:15:41;;;;;;;5.13;2.40;;;17.20;99.90;;;;;;5053609;28;20370;-61
2022/09/15 00:18:06;;;;;;;4.32;2.30;;;16.80;99.90;;;;;;5053890;28;20078;-61
2022/09/15 00:20:32;;;;;;;5.55;3.03;;;17.30;99.90;;;;;;5053208;28;20029;-60
2022/09/15 00:22:58;;;;;;;5.63;2.67;;;17.60;99.90;;;;;;5053277;28;20514;-61
2022/09/15 00:25:24;;;;;;;5.45;2.78;;;17.20;99.90;;;;;;5053515;28;20051;-61
2022/09/15 00:27:49;;;;;;;6.05;2.80;;;16.80;99.90;;;;;;5053314;28;20133;-61
2022/09/15 00:30:15;;;;;;;4.80;2.40;;;16.60;99.90;;;;;;5053495;28;20436;-61
2022/09/15 00:32:41;;;;;;;6.13;2.90;;;16.40;99.90;;;;;;5053259;28;20485;-60
2022/09/15 00:35:07;;;;;;;5.80;3.05;;;16.20;99.90;;;;;;5053233;28;20402;-61
2022/09/15 00:37:33;;;;;;;4.97;2.50;;;16.40;99.90;;;;;;5053252;28;20036;-61
2022/09/15 00:39:58;;;;;;;4.22;2.53;;;17.40;99.90;;;;;;5053137;28;20421;-61
2022/09/15 00:42:24;;;;;;;4.75;2.17;;;17.70;99.90;;;;;;5052807;28;20029;-61
2022/09/15 00:44:52;;;;;;;4.50;2.58;;;17.50;99.90;;;;;;5053063;28;20047;-61
2022/09/15 00:47:22;;;;;;;5.57;2.60;;;17.70;99.90;;;;;;5053071;28;20025;-61
2022/09/15 00:49:53;;;;;;;7.80;3.15;;;17.80;99.90;;;;;;5053103;28;20029;-61
2022/09/15 00:52:35;;;;;;;6.03;3.03;;;17.80;99.90;;;;;;5053160;28;20025;-61
2022/09/15 00:55:20;;;;;;;7.28;3.20;;;17.10;99.90;;;;;;5052866;28;20512;-61
2022/09/15 00:57:56;;;;;;;4.40;3.30;;;17.00;99.90;;;;;;5048339;28;20497;-61
2022/09/15 01:00:26;;;;;;;6.07;3.40;;;17.60;99.90;;;;;;5053191;28;20024;-61
2022/09/15 01:02:52;;;;;;;7.65;3.30;;;17.10;99.90;;;;;;5052473;28;20047;-61
2022/09/15 01:05:36;;;;;;;9.38;4.03;;;16.80;99.90;;;;;;5053092;28;20051;-61
2022/09/15 01:08:04;;;;;;;;;;;16.50;99.90;;;;;;5052076;28;20028;-61
2022/09/15 01:10:37;;;;;;;8.55;3.50;;;16.40;99.90;;;;;;5052394;28;20353;-60
2022/09/15 01:13:09;;;;;;;6.22;3.70;;;16.40;99.90;;;;;;5052012;28;20036;-61
2022/09/15 01:16:13;;;;;;;7.35;3.30;;;16.50;99.90;;;;;;5052375;28;20471;-61
2022/09/15 01:18:54;;;;;;;8.13;3.60;;;16.30;99.90;;;;;;5052431;28;20036;-61
2022/09/15 01:21:38;;;;;;;6.75;3.00;;;16.10;99.90;;;;;;5052242;28;20041;-61
2022/09/15 01:24:16;;;;;;;6.60;3.53;;;16.10;99.90;;;;;;5052370;28;20040;-60
2022/09/15 01:27:09;;;;;;;5.20;3.45;;;16.00;99.90;;;;;;5051902;28;20033;-61
2022/09/15 01:30:01;;;;;;;5.90;3.30;;;16.10;99.90;;;;;;5052191;28;20494;-60
2022/09/15 01:35:32;;;;;;;6.80;3.65;;;16.10;99.90;;;;;;5052559;28;20127;-60
2022/09/15 01:38:34;;;;;;;6.28;2.95;;;16.90;99.90;;;;;;5052269;28;20078;-60
2022/09/15 01:41:08;;;;;;;6.32;3.40;;;16.60;99.90;;;;;;5051496;28;20029;-61
2022/09/15 01:43:40;;;;;;;5.50;3.63;;;16.40;99.90;;;;;;5052256;28;20040;-61
2022/09/15 01:46:07;;;;;;;5.97;3.42;;;16.40;99.90;;;;;;5052145;28;20400;-61
2022/09/15 01:48:34;;;;;;;4.53;3.22;;;16.50;99.90;;;;;;5052168;28;20039;-61
2022/09/15 01:51:02;;;;;;;7.50;3.30;;;16.40;99.90;;;;;;5051741;28;20615;-61
2022/09/15 01:53:28;;;;;;;6.18;3.35;;;16.40;99.90;;;;;;5052098;28;20017;-61
2022/09/15 01:56:05;;;;;;;7.43;3.42;;;16.30;99.90;;;;;;5051759;28;20025;-61
2022/09/15 01:58:32;;;;;;;5.22;3.08;;;16.40;99.90;;;;;;5051973;28;20032;-61
2022/09/15 02:01:04;;;;;;;7.53;4.05;;;16.50;99.90;;;;;;5051791;28;20104;-61
2022/09/15 02:03:43;;;;;;;28.67;8.20;;;16.40;99.90;;;;;;5051698;28;20458;-61
2022/09/15 02:06:32;;;;;;;32.05;8.20;;;16.40;99.90;;;;;;5051694;28;20028;-61
2022/09/15 02:09:05;;;;;;;31.27;9.23;;;16.20;99.90;;;;;;5055037;28;20032;-61
2022/09/15 02:11:34;;;;;;;39.28;9.00;;;16.70;99.90;;;;;;5058568;28;20017;-61
2022/09/15 02:14:12;;;;;;;30.70;10.60;;;16.60;99.90;;;;;;5057260;28;20389;-61
2022/09/15 02:16:42;;;;;;;49.05;12.05;;;16.90;99.90;;;;;;5058767;28;20083;-61
2022/09/15 02:19:15;;;;;;;31.77;11.52;;;16.70;99.90;;;;;;5058167;28;20029;-61
2022/09/15 02:22:06;;;;;;;39.33;11.70;;;16.50;99.90;;;;;;5057913;28;20037;-61
2022/09/15 02:24:43;;;;;;;45.38;11.20;;;16.40;99.90;;;;;;5057757;28;20040;-61
2022/09/15 02:27:17;;;;;;;43.35;11.60;;;16.30;99.90;;;;;;5058150;28;20068;-61
2022/09/15 02:29:46;;;;;;;44.53;10.57;;;16.20;99.90;;;;;;5058196;28;20040;-61
2022/09/15 02:32:15;;;;;;;35.10;10.65;;;16.20;99.90;;;;;;5058448;28;20029;-61
2022/09/15 02:34:47;;;;;;;38.17;10.35;;;16.10;99.90;;;;;;5058252;28;20052;-61
2022/09/15 02:37:13;;;;;;;29.98;10.40;;;16.00;99.90;;;;;;5057969;28;20440;-61
2022/09/15 02:39:50;;;;;;;29.13;10.32;;;16.10;99.90;;;;;;5057605;28;20469;-61
2022/09/15 02:42:24;;;;;;;27.05;10.60;;;16.90;99.90;;;;;;5058366;28;20103;-61
2022/09/15 02:44:50;;;;;;;26.55;11.25;;;17.30;99.90;;;;;;5058081;28;20439;-61
2022/09/15 02:47:15;;;;;;;37.42;13.68;;;17.70;99.90;;;;;;5058124;28;20040;-61
2022/09/15 02:49:41;;;;;;;40.95;12.73;;;17.20;99.90;;;;;;5058064;28;20025;-61
2022/09/15 02:52:07;;;;;;;37.95;12.77;;;16.80;99.90;;;;;;5057979;28;20107;-61
2022/09/15 02:54:32;;;;;;;42.05;13.45;;;16.70;99.90;;;;;;5057763;28;20053;-61
2022/09/15 02:56:59;;;;;;;64.75;13.00;;;16.60;99.90;;;;;;5057864;28;20485;-61
2022/09/15 02:59:25;;;;;;;46.53;12.73;;;16.60;99.90;;;;;;5058465;28;20021;-61
2022/09/15 03:01:52;;;;;;;41.97;12.07;;;16.50;99.90;;;;;;5057756;28;20043;-61
2022/09/15 03:04:18;;;;;;;30.52;11.40;;;16.40;99.90;;;;;;5057904;28;20032;-61
2022/09/15 03:06:44;;;;;;;96.65;13.70;;;16.40;99.90;;;;;;5057799;28;20033;-61
2022/09/15 03:09:10;;;;;;;91.28;15.55;;;16.40;99.90;;;;;;5057699;28;20028;-61
2022/09/15 03:11:36;;;;;;;73.57;14.32;;;16.40;99.90;;;;;;5057901;28;20025;-61
2022/09/15 03:14:05;;;;;;;109.97;15.27;;;16.30;99.90;;;;;;5058324;28;20043;-61
2022/09/15 03:16:33;;;;;;;120.72;15.82;;;16.30;99.90;;;;;;5057771;28;20021;-61
2022/09/15 03:18:59;;;;;;;71.63;14.07;;;16.60;99.90;;;;;;5057745;28;20048;-60
2022/09/15 03:21:28;;;;;;;22.73;10.90;;;16.70;99.90;;;;;;5053213;28;20056;-60
2022/09/15 03:23:55;;;;;;;30.00;10.73;;;17.20;99.90;;;;;;5054538;28;20045;-61
2022/09/15 03:26:20;;;;;;;68.63;12.68;;;17.20;99.90;;;;;;5054491;28;20379;-60
2022/09/15 03:28:46;;;;;;;27.10;9.20;;;17.10;99.90;;;;;;5054607;28;20144;-61
2022/09/15 03:31:12;;;;;;;22.30;10.95;;;16.40;99.90;;;;;;5054430;28;20099;-61
2022/09/15 03:33:38;;;;;;;28.42;10.10;;;16.60;99.90;;;;;;5053133;28;20477;-60
2022/09/15 03:36:05;;;;;;;43.03;11.02;;;16.70;99.90;;;;;;5053978;28;20025;-60
2022/09/15 03:38:32;;;;;;;18.40;9.52;;;16.90;99.90;;;;;;5054656;28;20522;-60
2022/09/15 03:41:03;;;;;;;28.67;10.75;;;16.80;99.90;;;;;;5054004;28;20031;-61
2022/09/15 03:43:30;;;;;;;19.98;10.18;;;17.00;99.90;;;;;;5054096;28;20037;-61
2022/09/15 03:45:57;;;;;;;18.35;10.13;;;17.10;99.90;;;;;;5054220;28;20025;-60
2022/09/15 03:48:23;;;;;;;16.92;10.20;;;17.20;99.90;;;;;;5054060;28;20037;-61
2022/09/15 03:50:50;;;;;;;23.05;11.18;;;17.20;99.90;;;;;;5054001;28;20071;-60
2022/09/15 03:53:16;;;;;;;25.60;11.35;;;17.20;99.90;;;;;;5054085;28;20036;-61
2022/09/15 03:55:42;;;;;;;20.15;10.55;;;17.10;99.90;;;;;;5053962;28;20048;-61
2022/09/15 03:58:08;;;;;;;21.20;10.77;;;17.20;99.90;;;;;;5052738;28;20093;-61
2022/09/15 04:00:34;;;;;;;31.70;11.57;;;17.10;99.90;;;;;;5054031;28;20420;-61
2022/09/15 04:02:59;;;;;;;27.48;10.88;;;17.00;99.90;;;;;;5054345;28;20037;-60
2022/09/15 04:05:25;;;;;;;57.85;12.57;;;17.00;99.90;;;;;;5051908;28;20033;-61
2022/09/15 04:07:51;;;;;;;20.77;10.38;;;16.90;99.90;;;;;;5052880;28;20025;-61
2022/09/15 04:10:17;;;;;;;19.83;9.00;;;17.30;99.90;;;;;;5053748;28;20035;-61
2022/09/15 04:12:43;;;;;;;26.38;10.30;;;17.70;99.90;;;;;;5053655;28;20503;-61
2022/09/15 04:15:09;;;;;;;27.20;9.05;;;17.40;99.90;;;;;;5053669;28;20031;-61
2022/09/15 04:17:35;;;;;;;18.80;9.30;;;17.30;99.90;;;;;;5053569;28;20096;-61
2022/09/15 04:20:01;;;;;;;27.15;10.52;;;17.30;99.90;;;;;;5053185;28;20021;-61
2022/09/15 04:22:30;;;;;;;29.10;9.80;;;17.60;99.90;;;;;;5053178;28;20049;-61
2022/09/15 04:24:56;;;;;;;53.80;10.57;;;17.50;99.90;;;;;;5053422;28;20060;-61
2022/09/15 04:27:22;;;;;;;67.57;11.27;;;17.40;99.90;;;;;;5053466;28;20055;-61
2022/09/15 04:29:51;;;;;;;51.95;11.93;;;17.10;99.90;;;;;;5053611;28;20079;-61
2022/09/15 04:32:17;;;;;;;38.67;10.50;;;16.90;99.90;;;;;;5053189;28;20025;-61
2022/09/15 04:34:42;;;;;;;40.60;12.27;;;16.80;99.90;;;;;;5053143;28;20463;-60
2022/09/15 04:37:09;;;;;;;38.72;9.90;;;16.80;99.90;;;;;;5053243;28;20067;-60
2022/09/15 04:39:35;;;;;;;32.58;9.88;;;16.80;99.90;;;;;;5053076;28;20048;-60
2022/09/15 04:42:04;;;;;;;50.25;9.20;;;16.70;99.90;;;;;;5053097;28;20056;-60
2022/09/15 04:44:29;;;;;;;40.22;10.18;;;16.60;99.90;;;;;;5053057;28;20025;-60
2022/09/15 04:46:55;;;;;;;32.00;9.68;;;16.60;99.90;;;;;;5053369;28;20028;-60
2022/09/15 04:49:21;;;;;;;41.67;9.52;;;16.60;99.90;;;;;;5052620;28;20017;-60
2022/09/15 04:51:47;;;;;;;41.35;9.18;;;16.60;99.90;;;;;;5052881;28;20037;-60
2022/09/15 04:54:12;;;;;;;36.72;9.20;;;16.70;99.90;;;;;;5052853;28;20375;-60
2022/09/15 04:56:38;;;;;;;32.17;10.00;;;17.00;99.90;;;;;;5052870;28;20029;-61
2022/09/15 04:59:04;;;;;;;33.22;9.57;;;16.70;99.90;;;;;;5053180;28;20486;-61
2022/09/15 05:01:33;;;;;;;16.25;7.82;;;16.70;99.90;;;;;;5052904;28;20405;-60
2022/09/15 05:04:02;;;;;;;12.40;6.78;;;16.90;99.90;;;;;;5051063;28;20119;-61
2022/09/15 05:06:28;;;;;;;23.52;7.70;;;17.60;99.90;;;;;;5052594;28;20029;-60
2022/09/15 05:08:56;;;;;;;31.88;8.23;;;17.70;99.90;;;;;;5052961;28;20527;-61
2022/09/15 05:11:23;;;;;;;31.65;8.40;;;17.30;99.90;;;;;;5052722;28;20507;-62
2022/09/15 05:13:49;;;;;;;17.63;6.78;;;17.10;99.90;;;;;;5052568;28;20511;-60
2022/09/15 05:16:20;;;;;;;20.42;7.32;;;17.00;99.90;;;;;;5052439;28;20075;-60
2022/09/15 05:18:48;;;;;;;17.77;6.63;;;17.00;99.90;;;;;;5052461;28;20417;-61
2022/09/15 05:21:16;;;;;;;17.83;7.75;;;17.10;99.90;;;;;;5052164;28;20460;-61
2022/09/15 05:23:42;;;;;;;22.88;9.35;;;17.10;99.90;;;;;;5052117;28;20041;-61
2022/09/15 05:26:12;;;;;;;15.23;7.60;;;17.00;99.90;;;;;;5052350;28;20028;-60
2022/09/15 05:28:39;;;;;;;9.07;7.40;;;17.00;99.90;;;;;;5052245;28;20041;-61
2022/09/15 05:31:17;;;;;;;24.67;8.93;;;17.00;99.90;;;;;;5052110;28;20448;-60
2022/09/15 05:33:44;;;;;;;7.18;6.45;;;17.00;99.90;;;;;;5051863;28;20481;-60
2022/09/15 05:36:10;;;;;;;13.27;7.68;;;17.60;99.90;;;;;;5052210;28;20049;-60
2022/09/15 05:38:35;;;;;;;18.52;7.40;;;17.70;99.90;;;;;;5052213;28;20110;-61
2022/09/15 05:41:10;;;;;;;9.93;6.45;;;17.50;99.90;;;;;;5052234;28;20381;-61
2022/09/15 05:43:38;;;;;;;32.03;9.93;;;17.70;99.90;;;;;;5050979;28;20033;-61
2022/09/15 05:46:05;;;;;;;11.45;7.95;;;17.70;99.90;;;;;;5052047;28;20032;-61
2022/09/15 05:48:30;;;;;;;10.02;7.43;;;17.30;99.90;;;;;;5051635;28;20448;-61
2022/09/15 05:50:57;;;;;;;14.63;7.97;;;17.20;99.90;;;;;;5052276;28;20029;-61
2022/09/15 05:53:23;;;;;;;9.30;7.28;;;17.20;99.90;;;;;;5051989;28;20057;-60
2022/09/15 05:55:57;;;;;;;26.95;7.00;;;17.40;99.90;;;;;;5051852;28;20494;-60
2022/09/15 05:58:24;;;;;;;26.90;7.00;;;17.40;99.90;;;;;;5051806;28;20029;-61
2022/09/15 06:00:52;;;;;;;40.55;7.30;;;17.30;99.90;;;;;;5051217;28;20040;-61
2022/09/15 06:03:18;;;;;;;16.85;7.22;;;17.40;99.90;;;;;;5052076;28;20037;-61
2022/09/15 06:05:44;;;;;;;20.52;7.03;;;17.80;99.90;;;;;;5051818;28;20079;-61
2022/09/15 06:08:11;;;;;;;18.52;7.70;;;17.70;99.90;;;;;;5051741;28;20033;-60
2022/09/15 06:10:37;;;;;;;21.30;7.35;;;17.50;99.90;;;;;;5052066;28;20029;-61
2022/09/15 06:13:03;;;;;;;21.25;8.55;;;17.60;99.90;;;;;;5051607;28;20390;-61
2022/09/15 06:15:29;;;;;;;30.73;8.63;;;17.60;99.90;;;;;;5051727;28;20017;-60
2022/09/15 06:17:55;;;;;;;12.77;7.90;;;17.50;99.90;;;;;;5051533;28;20256;-59
2022/09/15 06:20:21;;;;;;;12.52;6.47;;;17.50;99.90;;;;;;5049990;28;20036;-60
2022/09/15 06:22:47;;;;;;;10.43;6.55;;;18.00;99.90;;;;;;5051577;28;20040;-59
2022/09/15 06:25:13;;;;;;;22.92;6.45;;;18.50;99.90;;;;;;5051443;28;20036;-60
2022/09/15 06:27:39;;;;;;;16.65;5.93;;;18.30;99.90;;;;;;5051809;28;20036;-60
2022/09/15 06:30:07;;;;;;;10.15;6.07;;;18.70;99.90;;;;;;5051173;28;20094;-59
2022/09/15 06:32:34;;;;;;;19.42;10.15;;;18.90;99.90;;;;;;5051349;28;20029;-60
2022/09/15 06:34:59;;;;;;;14.65;9.88;;;19.10;99.90;;;;;;5051390;28;20100;-60
2022/09/15 06:37:25;;;;;;;18.92;10.32;;;18.90;99.90;;;;;;5051943;28;20060;-59
2022/09/15 06:39:51;;;;;;;19.27;9.15;;;19.00;99.90;;;;;;5051251;28;20021;-60
2022/09/15 06:42:17;;;;;;;12.63;7.03;;;19.00;99.90;;;;;;5051245;28;20037;-60
2022/09/15 06:44:42;;;;;;;13.18;7.30;;;19.10;99.90;;;;;;5051068;28;20029;-60
2022/09/15 06:47:09;;;;;;;29.23;7.43;;;19.10;99.90;;;;;;5051349;28;20033;-60
2022/09/15 06:49:35;;;;;;;7.82;7.10;;;19.20;99.90;;;;;;5051305;28;20028;-60
2022/09/15 06:52:01;;;;;;;13.65;10.10;;;19.40;99.90;;;;;;5051550;28;20124;-59
2022/09/15 06:54:27;;;;;;;14.35;10.50;;;19.70;99.90;;;;;;5052246;28;20036;-61
2022/09/15 06:56:53;;;;;;;18.77;8.60;;;19.80;99.90;;;;;;5055121;28;20021;-60
2022/09/15 06:59:18;;;;;;;17.17;7.20;;;19.50;99.90;;;;;;5054592;28;20060;-60
2022/09/15 07:01:44;;;;;;;31.02;5.78;;;20.00;99.90;;;;;;5055293;28;20029;-59
2022/09/15 07:04:10;;;;;;;13.02;5.80;;;20.10;99.90;;;;;;5054722;28;20040;-61
2022/09/15 07:06:38;;;;;;;10.23;5.10;;;20.00;99.90;;;;;;5054908;28;20028;-60
2022/09/15 07:09:05;;;;;;;10.52;4.28;;;20.20;99.90;;;;;;5054711;28;20105;-60
2022/09/15 07:11:31;;;;;;;18.42;4.60;;;20.90;99.90;;;;;;5055111;28;20021;-60
2022/09/15 07:13:57;;;;;;;7.22;4.68;;;20.70;99.90;;;;;;5053517;28;20112;-61
2022/09/15 07:16:27;;;;;;;12.10;4.88;;;21.50;99.90;;;;;;5053853;28;20029;-61
2022/09/15 07:18:56;;;;;;;5.07;4.53;;;21.90;99.90;;;;;;5055073;28;20422;-61
2022/09/15 07:21:23;;;;;;;13.98;4.70;;;22.40;99.90;;;;;;5054038;28;20045;-61
2022/09/15 07:23:49;;;;;;;16.05;4.50;;;22.20;99.90;;;;;;5054653;28;20068;-61
2022/09/15 07:26:17;;;;;;;12.68;4.80;;;21.80;99.90;;;;;;5054547;28;20051;-61
2022/09/15 07:28:50;;;;;;;6.60;4.35;;;21.40;99.90;;;;;;5054070;28;20044;-61
2022/09/15 07:31:18;;;;;;;6.75;4.60;;;21.80;99.90;;;;;;5054453;28;20076;-61
2022/09/15 07:33:44;;;;;;;6.05;5.00;;;22.00;99.90;;;;;;5054664;28;20429;-61
2022/09/15 07:36:10;;;;;;;8.32;5.35;;;22.40;99.90;;;;;;5054425;28;20051;-61
2022/09/15 07:38:41;;;;;;;6.57;5.18;;;22.60;99.90;;;;;;5054378;28;20017;-61
2022/09/15 07:41:17;;;;;;;6.82;5.78;;;23.30;99.90;;;;;;5054067;28;20037;-61
2022/09/15 07:43:50;;;;;;;8.60;6.78;;;24.00;99.90;;;;;;5053768;28;20061;-61
2022/09/15 07:46:16;;;;;;;;;;;24.10;99.90;;;;;;5054562;28;20055;-62
2022/09/15 07:48:46;;;;;;;14.45;10.40;;;24.80;99.90;;;;;;5054683;28;19944;-61
2022/09/15 07:51:13;;;;;;;15.07;10.55;;;25.60;99.90;;;;;;5054114;28;20079;-61
2022/09/15 07:53:39;;;;;;;15.50;10.90;;;26.00;99.90;;;;;;5054065;28;20397;-61
2022/09/15 07:56:06;;;;;;;16.63;11.77;;;25.70;99.90;;;;;;5035963;28;20389;-61
2022/09/15 07:58:32;;;;;;;15.45;9.55;;;26.30;99.90;;;;;;5053695;28;20116;-62
2022/09/15 08:01:06;;;;;;;16.95;14.43;;;26.70;99.90;;;;;;5053715;28;20104;-62
2022/09/15 08:03:32;;;;;;;;;;;26.40;99.90;;;;;;5054713;28;20124;-62
2022/09/15 08:05:59;;;;;;;27.80;20.40;;;26.90;99.90;;;;;;5053140;28;19991;-62
2022/09/15 08:08:26;;;;;;;44.28;32.60;;;26.80;99.90;;;;;;5053772;28;20539;-62
2022/09/15 08:10:52;;;;;;;45.70;33.92;;;28.30;99.90;;;;;;5053658;28;20025;-62
2022/09/15 08:13:18;;;;;;;38.08;29.30;;;29.10;99.90;;;;;;5052114;28;20033;-62
2022/09/15 08:15:44;;;;;;;36.40;28.63;;;31.10;99.90;;;;;;5054106;28;20100;-62
2022/09/15 08:18:10;;;;;;;33.47;27.25;;;29.70;99.90;;;;;;5053350;28;20036;-60
2022/09/15 08:20:41;;;;;;;32.70;25.48;;;29.50;99.90;;;;;;5053374;28;20049;-62
2022/09/15 08:23:07;;;;;;;29.08;23.02;;;30.60;99.90;;;;;;5053767;28;20040;-61
2022/09/15 08:25:33;;;;;;;30.10;22.35;;;32.80;99.90;;;;;;5053543;28;20017;-62
2022/09/15 08:27:58;;;;;;;26.48;20.45;;;33.40;99.90;;;;;;5052692;28;20362;-62
2022/09/15 08:30:25;;;;;;;23.77;18.67;;;33.90;99.90;;;;;;5053287;28;20036;-67
2022/09/15 08:32:51;;;;;;;21.20;17.00;;;34.30;99.90;;;;;;5053319;28;20147;-64
2022/09/15 08:35:18;;;;;;;26.80;19.00;;;33.90;99.60;;;;;;5053375;28;20483;-62
2022/09/15 08:37:44;;;;;;;28.77;20.35;;;33.50;99.50;;;;;;5051852;28;20116;-62
2022/09/15 08:40:17;;;;;;;33.30;25.10;;;33.80;99.80;;;;;;5052745;28;20063;-62
2022/09/15 08:42:45;;;;;;;52.40;41.72;;;34.70;98.60;;;;;;5051807;28;20029;-62
2022/09/15 08:45:19;;;;;;;73.47;55.85;;;34.40;98.00;;;;;;5052745;28;20028;-62
2022/09/15 08:47:47;;;;;;;80.40;62.67;;;34.20;98.30;;;;;;5053009;28;20171;-62
2022/09/15 08:50:30;;;;;;;84.88;67.28;;;34.50;97.90;;;;;;5052965;28;20032;-62
2022/09/15 08:52:58;;;;;;;85.78;64.72;;;34.40;97.60;;;;;;5052567;28;20025;-60
2022/09/15 08:55:52;;;;;;;91.88;69.80;;;34.70;97.20;;;;;;5052404;28;20029;-61
2022/09/15 08:58:19;;;;;;;;;;;35.90;96.30;;;;;;5052430;28;20112;-62
2022/09/15 09:00:47;;;;;;;97.53;77.28;;;36.30;95.30;;;;;;5052599;28;19948;-61
2022/09/15 09:03:43;;;;;;;85.95;71.90;;;36.40;94.70;;;;;;5052968;28;20051;-61
2022/09/15 09:06:27;;;;;;;74.50;57.25;;;36.30;94.10;;;;;;5052703;28;20445;-62
2022/09/15 09:09:14;;;;;;;77.05;60.70;;;36.40;94.00;;;;;;5052074;28;20029;-61
2022/09/15 09:12:02;;;;;;;74.90;63.58;;;38.10;91.90;;;;;;5051812;28;20436;-61
2022/09/15 09:14:57;;;;;;;71.13;52.33;;;36.70;93.10;;;;;;5052149;28;20041;-62
2022/09/15 09:17:40;;;;;;;74.55;59.88;;;36.70;92.50;;;;;;5052428;28;20501;-61
2022/09/15 09:20:18;;;;;;;;;;;34.50;93.40;;;;;;5052531;28;20426;-61
2022/09/15 09:22:47;;;;;;;77.55;57.75;;;36.20;93.00;;;;;;5052121;28;20388;-61
2022/09/15 09:25:16;;;;;;;72.55;58.30;;;37.10;92.20;;;;;;5052121;28;20021;-62
2022/09/15 09:27:42;;;;;;;69.45;57.58;;;38.50;90.60;;;;;;5052243;28;20036;-60
2022/09/15 09:30:20;;;;;;;70.68;57.15;;;39.40;88.70;;;;;;5051841;28;20029;-63
2022/09/15 09:32:52;;;;;;;65.82;52.17;;;38.80;88.40;;;;;;5052120;28;20032;-63
2022/09/15 09:35:30;;;;;;;61.78;48.08;;;36.70;90.60;;;;;;5052072;28;20150;-62
2022/09/15 09:37:58;;;;;;;56.75;44.90;;;37.50;90.30;;;;;;5052037;28;20021;-62
2022/09/15 09:40:25;;;;;;;56.03;46.15;;;36.70;90.30;;;;;;5051498;28;20024;-62
2022/09/15 09:42:51;;;;;;;56.25;45.58;;;37.10;90.90;;;;;;5051976;28;20379;-62
2022/09/15 09:45:18;;;;;;;56.75;44.28;;;38.50;89.50;;;;;;5052229;28;20029;-62
2022/09/15 09:47:45;;;;;;;55.47;45.10;;;38.90;87.70;;;;;;5051952;28;20031;-62
2022/09/15 09:50:32;;;;;;;53.17;42.40;;;38.60;88.20;;;;;;5051885;28;20040;-63
2022/09/15 09:52:58;;;;;;;45.47;38.03;;;39.00;85.70;;;;;;5051584;28;20512;-62
2022/09/15 09:55:26;;;;;;;45.10;36.65;;;38.80;85.50;;;;;;5051972;28;20059;-63
2022/09/15 09:57:53;;;;;;;46.35;36.95;;;38.20;85.90;;;;;;5051782;28;20032;-62
2022/09/15 10:00:36;;;;;;;46.03;36.80;;;38.90;85.00;;;;;;5051785;28;20033;-63
2022/09/15 10:03:13;;;;;;;44.78;36.50;;;39.50;83.90;;;;;;5052070;28;20033;-62
2022/09/15 10:05:40;;;;;;;44.63;37.38;;;40.10;84.90;;;;;;5050530;28;20397;-63
2022/09/15 10:08:06;;;;;;;45.53;37.50;;;40.00;81.40;;;;;;5051770;28;20489;-62
2022/09/15 10:10:32;;;;;;;42.60;34.08;;;38.60;83.10;;;;;;5051679;28;20018;-62
2022/09/15 10:13:00;;;;;;;38.90;32.92;;;39.40;83.60;;;;;;5051736;28;20028;-62
2022/09/15 10:15:30;;;;;;;38.42;32.72;;;37.60;85.30;;;;;;5051952;28;20029;-63
2022/09/15 10:17:56;;;;;;;39.88;32.75;;;36.20;85.80;;;;;;5052106;28;20024;-62
2022/09/15 10:20:37;;;;;;;40.58;33.63;;;36.20;88.80;;;;;;5051562;28;20021;-62
2022/09/15 10:23:24;;;;;;;28.30;23.38;;;35.50;88.10;;;;;;5050973;28;20083;-63
2022/09/15 10:26:10;;;;;;;23.80;20.33;;;34.80;88.10;;;;;;5051449;28;20127;-63
2022/09/15 10:28:36;;;;;;;15.68;13.45;;;33.70;89.70;;;;;;5051581;28;20041;-62
2022/09/15 10:31:05;;;;;;;16.52;14.73;;;35.40;89.00;;;;;;5053880;28;20014;-62
2022/09/15 10:33:36;;;;;;;20.75;18.05;;;37.10;86.30;;;;;;5055738;28;20044;-62
2022/09/15 10:36:27;;;;;;;15.40;11.73;;;39.50;83.10;;;;;;5055974;28;20032;-62
2022/09/15 10:39:17;;;;;;;13.00;10.10;;;39.60;80.60;;;;;;5055722;28;20492;-62
2022/09/15 10:42:07;;;;;;;17.75;15.02;;;38.80;80.50;;;;;;5055513;28;20025;-62
2022/09/15 10:44:51;;;;;;;15.05;12.48;;;38.30;82.60;;;;;;5055628;28;20029;-62
2022/09/15 10:47:20;;;;;;;18.40;14.85;;;38.90;82.90;;;;;;5055395;28;20040;-62
2022/09/15 10:50:10;;;;;;;16.98;14.68;;;40.20;80.40;;;;;;5055659;28;20020;-62
2022/09/15 10:53:03;;;;;;;11.80;9.85;;;40.50;79.20;;;;;;5055316;28;20090;-62
2022/09/15 10:56:04;;;;;;;8.70;6.55;;;38.80;79.30;;;;;;5055011;28;20398;-62
2022/09/15 10:58:55;;;;;;;10.80;6.40;;;39.20;79.10;;;;;;5033344;28;20056;-62
2022/09/15 11:01:27;;;;;;;9.40;8.02;;;38.40;79.20;;;;;;5033070;28;20110;-62
2022/09/15 11:04:07;;;;;;;4.25;3.22;;;36.30;83.00;;;;;;5016241;28;20513;-62
2022/09/15 11:06:38;;;;;;;6.70;4.03;;;34.80;82.40;;;;;;5032824;28;20505;-62
2022/09/15 11:09:17;;;;;;;7.18;5.63;;;34.40;84.00;;;;;;5032373;28;20083;-62
2022/09/15 11:11:43;;;;;;;5.22;2.60;;;33.90;84.90;;;;;;5033152;28;20029;-63
2022/09/15 11:14:11;;;;;;;12.88;9.52;;;33.10;86.20;;;;;;5032763;28;20076;-62
2022/09/15 11:16:46;;;;;;;8.43;7.15;;;33.40;85.70;;;;;;5032725;28;20048;-62
2022/09/15 11:19:38;;;;;;;7.10;6.15;;;33.40;87.10;;;;;;5032519;28;20526;-62
2022/09/15 11:22:15;;;;;;;4.83;4.03;;;33.00;84.50;;;;;;5032253;28;20045;-62
2022/09/15 11:24:56;;;;;;;5.38;4.82;;;33.10;85.00;;;;;;5032958;28;20057;-62
2022/09/15 11:27:24;;;;;;;2.78;1.20;;;33.00;86.00;;;;;;5032747;28;20027;-62
2022/09/15 11:30:13;;;;;;;6.47;5.18;;;32.80;85.50;;;;;;5032508;28;20413;-62
2022/09/15 11:33:00;;;;;;;4.03;2.00;;;32.60;85.20;;;;;;5032863;28;20029;-62
2022/09/15 11:35:36;;;;;;;3.45;3.08;;;32.10;86.10;;;;;;5044492;28;20071;-62
2022/09/15 11:38:18;;;;;;;3.85;3.33;;;31.90;87.90;;;;;;5054614;28;20033;-62
2022/09/15 11:41:04;;;;;;;5.00;4.00;;;31.90;88.40;;;;;;5053219;28;20078;-62
2022/09/15 11:43:34;;;;;;;1.58;1.10;;;31.30;89.60;;;;;;5054313;28;20025;-62
2022/09/15 11:46:06;;;;;;;5.80;2.90;;;31.80;87.90;;;;;;5054231;28;20056;-62
2022/09/15 11:48:40;;;;;;;3.95;1.92;;;31.60;89.10;;;;;;5054418;28;20033;-62
2022/09/15 11:51:07;;;;;;;2.60;1.92;;;31.20;88.70;;;;;;5054101;28;20404;-62
2022/09/15 11:53:37;;;;;;;2.47;1.20;;;30.70;89.80;;;;;;5054201;28;20371;-62
2022/09/15 11:56:14;;;;;;;1.50;1.40;;;31.10;89.00;;;;;;5054203;28;20021;-62
2022/09/15 11:58:53;;;;;;;2.08;1.35;;;31.10;90.00;;;;;;5054083;28;20032;-62
2022/09/15 12:01:33;;;;;;;2.15;1.20;;;31.40;89.40;;;;;;5053815;28;20025;-62
2022/09/15 12:04:04;;;;;;;3.28;2.00;;;31.90;90.00;;;;;;5053963;28;20519;-62
2022/09/15 12:06:51;;;;;;;2.60;1.40;;;31.60;89.90;;;;;;5053877;28;20028;-62
2022/09/15 12:09:19;;;;;;;3.35;1.80;;;31.50;90.10;;;;;;5053873;28;20060;-62
2022/09/15 12:11:48;;;;;;;1.05;0.85;;;30.90;91.40;;;;;;5054045;28;20029;-62
2022/09/15 12:14:34;;;;;;;2.70;1.48;;;31.10;90.00;;;;;;5053677;28;20033;-62
2022/09/15 12:17:02;;;;;;;2.15;1.30;;;30.90;90.50;;;;;;5053797;28;20025;-62
2022/09/15 12:19:32;;;;;;;2.38;1.02;;;30.80;90.40;;;;;;5053239;28;20446;-61
2022/09/15 12:22:38;;;;;;;3.33;1.27;;;30.40;91.10;;;;;;5053319;28;20513;-62
2022/09/15 12:25:10;;;;;;;1.17;1.08;;;30.50;91.10;;;;;;4991918;28;20415;-62
2022/09/15 12:27:36;;;;;;;1.80;1.20;;;30.50;90.50;;;;;;4992124;28;20050;-62
2022/09/15 12:30:03;;;;;;;2.45;1.45;;;30.60;90.70;;;;;;4992010;28;20408;-62
2022/09/15 12:32:33;;;;;;;1.98;1.17;;;30.20;91.20;;;;;;4991520;28;20023;-62
2022/09/15 12:35:17;;;;;;;3.15;1.48;;;30.10;90.50;;;;;;4992201;28;20026;-62
2022/09/15 12:37:46;;;;;;;;;;;30.10;90.70;;;;;;4992348;28;20391;-62
2022/09/15 12:40:27;;;;;;;1.55;0.90;;;30.00;91.40;;;;;;4991958;28;20020;-62
2022/09/15 12:42:53;;;;;;;1.20;0.80;;;29.60;91.60;;;;;;4991756;28;20038;-62
2022/09/15 12:45:32;;;;;;;1.98;1.10;;;29.20;92.20;;;;;;4991687;28;20138;-62
2022/09/15 12:48:04;;;;;;;1.50;1.13;;;29.50;92.10;;;;;;4991375;28;20030;-61
2022/09/15 12:50:37;;;;;;;2.10;1.40;;;29.20;92.10;;;;;;4991604;28;20034;-62
2022/09/15 12:53:19;;;;;;;1.45;1.10;;;29.20;92.60;;;;;;4991414;28;20109;-62
2022/09/15 12:55:54;;;;;;;2.10;1.00;;;29.40;92.50;;;;;;4991701;28;20038;-61
2022/09/15 12:58:39;;;;;;;2.20;1.00;;;29.50;92.30;;;;;;4991650;28;20036;-62
2022/09/15 13:01:50;;;;;;;1.30;0.95;;;29.20;92.30;;;;;;4995268;28;20026;-62